Time;durP1;ratioP1;P1;durP2;ratioP2;P2;SDS_P1;SDS_P2;PMS_P1;PMS_P2;Temp;Humidity;BMP_temperature;BMP_pressure;BME280_temperature;BME280_humidity;BME280_pressure;Samples;Min_cycle;Max_cycle;Signal;HPM_P1;HPM_P2
2021/07/24 00:01:16;;;;;;;6.82;3.88;;;20.30;72.80;;;;;;5008435;28;20037;-83
2021/07/24 00:03:41;;;;;;;10.57;4.38;;;20.30;72.60;;;;;;5007997;28;20034;-84
2021/07/24 00:06:08;;;;;;;8.73;4.22;;;20.20;73.00;;;;;;5008056;28;20037;-80
2021/07/24 00:08:34;;;;;;;8.85;4.47;;;20.20;73.00;;;;;;5026177;28;20061;-79
2021/07/24 00:11:04;;;;;;;7.68;4.20;;;20.20;73.20;;;;;;5007891;28;20041;-79
2021/07/24 00:13:31;;;;;;;9.25;4.25;;;20.20;73.10;;;;;;5025763;28;20044;-83
2021/07/24 00:15:57;;;;;;;10.00;4.43;;;20.20;73.20;;;;;;5008141;28;20041;-82
2021/07/24 00:18:23;;;;;;;11.07;4.53;;;20.20;73.10;;;;;;5025836;28;20417;-86
2021/07/24 00:20:49;;;;;;;11.73;4.72;;;20.10;72.90;;;;;;5028338;28;20482;-82
2021/07/24 00:23:15;;;;;;;16.10;4.57;;;20.20;73.20;;;;;;5029663;28;20032;-82
2021/07/24 00:25:40;;;;;;;13.48;4.13;;;20.20;73.50;;;;;;5011931;28;20033;-85
2021/07/24 00:28:07;;;;;;;8.10;4.18;;;20.10;73.40;;;;;;5029641;28;20382;-82
2021/07/24 00:30:36;;;;;;;8.60;3.65;;;20.10;73.30;;;;;;5011403;28;20145;-83
2021/07/24 00:33:02;;;;;;;8.48;3.90;;;20.10;73.30;;;;;;5029342;28;20045;-83
2021/07/24 00:35:27;;;;;;;8.43;4.18;;;20.10;73.50;;;;;;5028989;28;20528;-81
2021/07/24 00:37:53;;;;;;;7.85;3.65;;;20.00;73.40;;;;;;5011677;28;20037;-82
2021/07/24 00:40:21;;;;;;;10.88;4.05;;;20.00;73.50;;;;;;5011138;28;20506;-82
2021/07/24 00:42:51;;;;;;;10.15;4.50;;;20.00;74.00;;;;;;5011587;28;20033;-81
2021/07/24 00:45:17;;;;;;;8.40;3.78;;;20.10;73.30;;;;;;5011392;28;20502;-87
2021/07/24 00:47:46;;;;;;;7.43;3.72;;;20.10;73.30;;;;;;5029001;28;20045;-84
2021/07/24 00:50:13;;;;;;;6.47;4.10;;;20.00;73.10;;;;;;5011131;28;20549;-85
2021/07/24 00:52:43;;;;;;;7.38;3.63;;;20.00;73.40;;;;;;5029198;28;20152;-84
2021/07/24 00:55:12;;;;;;;7.55;3.35;;;20.00;73.30;;;;;;5029097;28;20076;-80
2021/07/24 00:57:40;;;;;;;10.88;4.18;;;20.00;74.10;;;;;;5029174;28;20028;-85
2021/07/24 01:00:07;;;;;;;7.38;3.95;;;19.90;73.90;;;;;;5011209;28;20116;-80
2021/07/24 01:02:33;;;;;;;7.75;3.42;;;19.90;73.70;;;;;;5011637;28;20425;-90
2021/07/24 01:05:01;;;;;;;11.65;4.88;;;19.90;74.00;;;;;;5011646;28;20041;-87
2021/07/24 01:07:27;;;;;;;11.25;4.40;;;19.90;74.00;;;;;;5011523;28;20045;-87
2021/07/24 01:09:53;;;;;;;6.70;3.80;;;19.90;73.60;;;;;;5013012;28;20076;-90
2021/07/24 01:12:19;;;;;;;7.25;3.90;;;19.90;73.80;;;;;;5030915;28;20486;-89
2021/07/24 01:14:45;;;;;;;7.68;3.45;;;19.90;73.90;;;;;;5013442;28;20116;-90
2021/07/24 01:17:11;;;;;;;8.75;3.60;;;19.80;74.20;;;;;;5010982;28;20021;-84
2021/07/24 01:19:36;;;;;;;9.52;4.70;;;19.70;74.20;;;;;;5013730;28;20036;-90
2021/07/24 01:22:02;;;;;;;9.98;4.45;;;19.70;74.70;;;;;;5030926;28;20032;-87
2021/07/24 01:24:28;;;;;;;12.45;4.50;;;19.70;74.70;;;;;;5011520;28;20045;-86
2021/07/24 01:26:53;;;;;;;9.63;4.28;;;19.60;74.40;;;;;;5029358;28;20036;-89
2021/07/24 01:29:22;;;;;;;12.95;4.93;;;19.60;74.80;;;;;;5012031;28;20102;-87
2021/07/24 01:31:48;;;;;;;13.23;4.63;;;19.60;74.90;;;;;;5028764;28;20073;-87
2021/07/24 01:34:14;;;;;;;15.73;4.85;;;19.60;75.10;;;;;;5011484;28;20669;-87
2021/07/24 01:36:39;;;;;;;15.45;5.18;;;19.60;75.50;;;;;;5011529;28;20068;-87
2021/07/24 01:39:07;;;;;;;13.73;5.40;;;19.60;75.60;;;;;;5011975;28;20028;-88
2021/07/24 01:41:32;;;;;;;15.35;4.50;;;19.50;75.80;;;;;;5013315;28;20059;-89
2021/07/24 01:43:58;;;;;;;11.85;5.25;;;19.50;76.10;;;;;;5012654;28;20029;-89
2021/07/24 01:46:24;;;;;;;16.13;4.40;;;19.50;76.60;;;;;;5030889;28;20041;-89
2021/07/24 01:54:42;;;;;;;18.10;5.28;;;19.40;77.00;;;;;;5031348;28;20044;-88
2021/07/24 01:57:10;;;;;;;13.00;4.30;;;19.50;77.40;;;;;;4992619;28;20034;-88
2021/07/24 01:59:42;;;;;;;18.73;4.50;;;19.40;77.60;;;;;;5031152;28;20363;-88
2021/07/24 02:02:14;;;;;;;12.48;4.65;;;19.40;77.80;;;;;;5013763;28;20083;-89
2021/07/24 02:04:54;;;;;;;12.75;4.30;;;19.40;78.20;;;;;;5012992;28;20041;-88
2021/07/24 02:07:21;;;;;;;9.82;4.68;;;19.30;78.30;;;;;;5030595;28;20406;-90
2021/07/24 02:09:48;;;;;;;13.85;5.72;;;19.20;78.50;;;;;;5013174;28;20527;-89
2021/07/24 02:12:14;;;;;;;12.15;5.90;;;19.20;79.00;;;;;;5013036;28;20022;-90
2021/07/24 02:14:40;;;;;;;14.60;5.32;;;19.10;79.20;;;;;;5012719;28;20559;-89
2021/07/24 02:17:05;;;;;;;12.32;4.57;;;19.10;79.40;;;;;;5030534;28;20025;-87
2021/07/24 02:19:32;;;;;;;10.50;5.10;;;19.00;79.90;;;;;;5013048;28;20079;-87
2021/07/24 02:21:59;;;;;;;16.38;4.97;;;19.00;80.40;;;;;;5011369;28;20079;-87
2021/07/24 02:24:25;;;;;;;12.13;4.50;;;18.90;80.60;;;;;;5028330;28;20584;-86
2021/07/24 02:26:51;;;;;;;10.82;4.80;;;18.90;81.10;;;;;;5011035;28;20022;-87
2021/07/24 02:29:16;;;;;;;10.77;4.57;;;18.90;81.30;;;;;;5029790;28;20086;-84
2021/07/24 02:31:42;;;;;;;13.05;4.60;;;18.80;81.70;;;;;;5028908;28;20026;-84
2021/07/24 02:34:07;;;;;;;11.45;4.22;;;18.80;81.70;;;;;;5027587;28;20113;-86
2021/07/24 02:36:33;;;;;;;13.80;4.22;;;18.70;82.10;;;;;;5010501;28;20502;-84
2021/07/24 02:38:59;;;;;;;14.75;5.30;;;18.60;82.60;;;;;;5029100;28;20033;-85
2021/07/24 02:41:25;;;;;;;13.70;6.65;;;18.60;83.10;;;;;;5029318;28;20112;-84
2021/07/24 02:43:51;;;;;;;15.30;8.07;;;18.50;83.50;;;;;;5011888;28;20469;-85
2021/07/24 02:46:19;;;;;;;23.27;13.60;;;18.50;83.90;;;;;;5012362;28;20033;-86
2021/07/24 02:48:48;;;;;;;22.13;12.48;;;18.40;84.20;;;;;;5030273;28;20032;-83
2021/07/24 02:51:15;;;;;;;18.23;11.68;;;18.30;84.70;;;;;;5031614;28;20029;-84
2021/07/24 02:53:41;;;;;;;16.23;8.85;;;18.30;85.20;;;;;;5031086;28;20032;-81
2021/07/24 02:56:07;;;;;;;11.25;6.40;;;18.20;85.50;;;;;;5034945;28;20029;-83
2021/07/24 02:58:32;;;;;;;14.40;5.82;;;18.10;85.60;;;;;;5021777;28;20029;-86
2021/07/24 03:00:58;;;;;;;11.98;5.38;;;18.10;85.80;;;;;;5022873;28;20060;-88
2021/07/24 03:03:24;;;;;;;10.88;5.95;;;18.10;86.10;;;;;;5025210;28;20120;-88
2021/07/24 03:05:49;;;;;;;10.10;4.70;;;18.10;86.30;;;;;;5047216;28;20033;-88
2021/07/24 03:08:16;;;;;;;7.85;4.80;;;18.10;86.40;;;;;;5050436;28;20025;-84
2021/07/24 03:10:42;;;;;;;7.68;4.60;;;18.10;86.50;;;;;;5050622;28;20382;-87
2021/07/24 03:13:07;;;;;;;13.55;4.40;;;18.00;86.60;;;;;;5033931;28;20034;-88
2021/07/24 03:15:33;;;;;;;11.15;4.63;;;18.10;86.90;;;;;;5047853;28;20032;-88
2021/07/24 03:17:59;;;;;;;9.50;4.50;;;18.00;87.00;;;;;;5045216;28;20029;-90
2021/07/24 03:20:24;;;;;;;9.10;4.60;;;18.00;87.00;;;;;;5028432;28;20079;-87
2021/07/24 03:22:51;;;;;;;8.40;4.40;;;18.00;87.20;;;;;;5040620;28;20545;-88
2021/07/24 03:25:17;;;;;;;13.88;4.78;;;18.10;87.10;;;;;;5041623;28;20514;-88
2021/07/24 03:27:42;;;;;;;11.13;4.70;;;18.00;87.10;;;;;;5022297;28;20036;-86
2021/07/24 03:30:09;;;;;;;10.82;6.18;;;18.10;87.20;;;;;;5027923;28;20034;-88
2021/07/24 03:32:35;;;;;;;9.82;4.82;;;18.10;87.10;;;;;;5042144;28;20045;-87
2021/07/24 03:35:00;;;;;;;7.70;4.32;;;18.10;87.20;;;;;;5020965;28;20514;-87
2021/07/24 03:37:27;;;;;;;9.68;4.28;;;18.10;87.20;;;;;;5020724;28;20147;-87
2021/07/24 03:39:53;;;;;;;9.32;4.07;;;18.10;87.40;;;;;;5017452;28;20481;-89
2021/07/24 03:42:18;;;;;;;7.78;4.55;;;18.10;87.40;;;;;;5016598;28;20036;-87
2021/07/24 03:44:44;;;;;;;12.57;4.20;;;18.20;87.30;;;;;;5013214;28;20730;-88
2021/07/24 03:47:09;;;;;;;8.27;3.92;;;18.20;87.30;;;;;;5029944;28;20034;-88
2021/07/24 03:49:35;;;;;;;8.82;4.32;;;18.20;87.30;;;;;;5011949;28;20057;-88
2021/07/24 03:52:01;;;;;;;8.80;4.95;;;18.20;87.20;;;;;;5011485;28;20022;-89
2021/07/24 03:54:27;;;;;;;6.78;4.05;;;18.30;86.80;;;;;;5012658;28;20025;-88
2021/07/24 03:56:53;;;;;;;7.70;4.60;;;18.40;86.90;;;;;;5032432;28;20033;-89
2021/07/24 03:59:18;;;;;;;11.23;4.15;;;18.50;86.70;;;;;;5015370;28;20017;-90
2021/07/24 04:01:44;;;;;;;7.90;5.28;;;18.50;86.40;;;;;;5014470;28;20037;-90
2021/07/24 04:04:13;;;;;;;7.78;4.60;;;18.60;86.30;;;;;;5014646;28;20102;-89
2021/07/24 04:06:39;;;;;;;6.13;4.13;;;18.70;85.70;;;;;;5014918;28;20044;-90
2021/07/24 04:09:07;;;;;;;9.18;4.70;;;18.80;85.60;;;;;;5032406;28;20386;-89
2021/07/24 04:11:34;;;;;;;11.70;3.70;;;18.90;85.00;;;;;;5031325;28;20572;-88
2021/07/24 04:14:00;;;;;;;12.85;4.25;;;19.10;84.40;;;;;;5030537;28;20040;-89
2021/07/24 04:16:27;;;;;;;13.68;4.43;;;19.20;84.70;;;;;;5030847;28;20248;-87
2021/07/24 04:18:53;;;;;;;11.20;4.80;;;19.30;83.80;;;;;;5012871;28;20033;-87
2021/07/24 04:21:20;;;;;;;17.10;4.00;;;19.50;83.20;;;;;;5012646;28;20120;-85
2021/07/24 04:23:45;;;;;;;12.02;4.32;;;19.60;82.30;;;;;;5012705;28;20112;-87
2021/07/24 04:26:11;;;;;;;9.55;3.90;;;19.70;82.00;;;;;;5031110;28;20419;-87
2021/07/24 04:28:37;;;;;;;7.47;3.90;;;19.90;81.50;;;;;;5031054;28;20025;-86
2021/07/24 04:31:03;;;;;;;8.45;4.45;;;20.00;80.90;;;;;;5012729;28;20438;-85
2021/07/24 04:33:28;;;;;;;10.02;4.32;;;20.20;80.50;;;;;;5030131;28;20037;-88
2021/07/24 04:35:54;;;;;;;6.85;3.83;;;20.40;79.00;;;;;;5012720;28;20313;-86
2021/07/24 04:38:20;;;;;;;7.18;3.63;;;20.60;78.10;;;;;;5012227;28;20120;-87
2021/07/24 04:40:45;;;;;;;8.88;3.75;;;20.70;77.30;;;;;;5013225;28;20025;-89
2021/07/24 04:43:13;;;;;;;6.45;4.15;;;20.90;77.20;;;;;;5014260;28;20026;-88
2021/07/24 04:45:43;;;;;;;10.15;3.53;;;21.10;77.00;;;;;;5031204;28;20037;-86
2021/07/24 04:48:10;;;;;;;11.93;5.35;;;21.30;76.80;;;;;;5030397;28;20056;-87
2021/07/24 04:50:42;;;;;;;9.65;5.15;;;21.40;76.70;;;;;;5030543;28;20113;-87
2021/07/24 04:53:09;;;;;;;8.18;4.93;;;21.60;76.50;;;;;;5029695;28;20372;-85
2021/07/24 04:55:39;;;;;;;8.40;5.30;;;21.70;77.00;;;;;;5029018;28;20053;-85
2021/07/24 04:58:07;;;;;;;14.20;5.53;;;21.90;76.80;;;;;;5011173;28;20088;-84
2021/07/24 05:00:37;;;;;;;14.85;5.85;;;22.10;76.40;;;;;;5012109;28;20063;-86
2021/07/24 05:03:04;;;;;;;11.05;5.40;;;22.20;76.00;;;;;;5010058;28;20033;-85
2021/07/24 05:05:29;;;;;;;13.65;5.07;;;22.40;76.10;;;;;;5009625;28;20038;-85
2021/07/24 05:07:55;;;;;;;12.20;5.50;;;22.60;75.80;;;;;;5028571;28;20382;-85
2021/07/24 05:10:21;;;;;;;14.98;6.38;;;22.70;73.80;;;;;;5028997;28;20075;-88
2021/07/24 05:12:47;;;;;;;14.07;5.10;;;22.90;74.00;;;;;;5028793;28;20471;-87
2021/07/24 05:15:12;;;;;;;11.45;4.72;;;23.00;73.90;;;;;;5013628;28;20080;-85
2021/07/24 05:17:40;;;;;;;6.78;4.28;;;23.10;72.60;;;;;;5012091;28;20632;-87
2021/07/24 05:20:06;;;;;;;11.10;4.95;;;23.20;71.50;;;;;;5030965;28;20136;-86
2021/07/24 05:22:32;;;;;;;7.32;4.43;;;23.40;71.60;;;;;;5012226;28;20508;-86
2021/07/24 05:24:57;;;;;;;9.75;4.93;;;23.60;71.70;;;;;;5030477;28;20128;-85
2021/07/24 05:27:23;;;;;;;13.60;4.88;;;23.90;71.10;;;;;;5030099;28;20029;-84
2021/07/24 05:29:49;;;;;;;9.88;5.55;;;24.10;71.00;;;;;;5013010;28;20033;-85
2021/07/24 05:32:14;;;;;;;9.43;4.25;;;24.20;70.60;;;;;;5029041;28;20681;-79
2021/07/24 05:34:40;;;;;;;9.43;3.75;;;24.40;68.50;;;;;;5010391;28;20096;-85
2021/07/24 05:37:05;;;;;;;8.40;4.03;;;24.50;68.30;;;;;;5011985;28;20018;-87
2021/07/24 05:39:31;;;;;;;12.48;4.78;;;24.50;67.50;;;;;;5028632;28;20030;-83
2021/07/24 05:41:57;;;;;;;13.05;4.45;;;24.50;67.00;;;;;;5027980;28;20025;-87
2021/07/24 05:44:22;;;;;;;8.02;4.70;;;24.60;66.30;;;;;;5012672;28;20150;-86
2021/07/24 05:46:48;;;;;;;10.63;4.10;;;24.70;65.20;;;;;;5011625;28;20026;-85
2021/07/24 05:49:14;;;;;;;10.75;4.35;;;24.80;64.80;;;;;;5009699;28;20053;-83
2021/07/24 05:51:40;;;;;;;10.85;4.38;;;25.00;63.80;;;;;;5009892;28;20044;-85
2021/07/24 05:54:10;;;;;;;10.27;4.05;;;25.20;63.70;;;;;;5010277;28;20065;-83
2021/07/24 05:56:36;;;;;;;7.15;4.10;;;25.50;62.70;;;;;;5025572;28;20605;-82
2021/07/24 05:59:02;;;;;;;7.15;4.20;;;25.90;60.20;;;;;;5024626;28;20532;-82
2021/07/24 06:01:27;;;;;;;9.20;4.20;;;26.70;58.30;;;;;;5004626;28;20619;-83
2021/07/24 06:03:54;;;;;;;9.38;4.70;;;27.50;56.10;;;;;;5017693;28;20034;-82
2021/07/24 06:06:19;;;;;;;6.97;3.70;;;28.20;54.30;;;;;;5022551;28;20099;-82
2021/07/24 06:08:45;;;;;;;13.38;4.18;;;28.90;52.20;;;;;;5010141;28;20026;-81
2021/07/24 06:11:10;;;;;;;8.25;3.38;;;29.30;49.90;;;;;;5010200;28;20064;-82
2021/07/24 06:13:36;;;;;;;9.75;4.22;;;29.80;48.80;;;;;;5009968;28;20032;-82
2021/07/24 06:16:02;;;;;;;8.45;4.55;;;30.50;47.80;;;;;;5028055;28;20036;-84
2021/07/24 06:18:27;;;;;;;10.18;4.35;;;31.10;46.30;;;;;;5028621;28;20108;-85
2021/07/24 06:20:53;;;;;;;14.05;3.85;;;31.90;44.80;;;;;;5011275;28;20029;-84
2021/07/24 06:23:19;;;;;;;18.00;4.03;;;32.70;42.60;;;;;;5010442;28;20021;-84
2021/07/24 06:25:46;;;;;;;11.77;4.53;;;33.30;40.90;;;;;;5028049;28;20088;-83
2021/07/24 06:28:12;;;;;;;8.57;3.75;;;33.90;39.80;;;;;;5010482;28;20394;-83
2021/07/24 06:30:38;;;;;;;13.15;3.50;;;34.50;38.40;;;;;;5027422;28;20025;-83
2021/07/24 06:33:04;;;;;;;6.35;3.75;;;34.80;37.60;;;;;;5006957;28;20029;-83
2021/07/24 06:35:30;;;;;;;7.90;3.47;;;35.00;37.20;;;;;;5009349;28;20525;-83
2021/07/24 06:37:56;;;;;;;6.28;3.05;;;35.00;36.10;;;;;;5009554;28;20049;-80
2021/07/24 06:40:21;;;;;;;6.00;3.30;;;35.30;36.30;;;;;;5026637;28;20025;-83
2021/07/24 06:42:47;;;;;;;10.23;3.42;;;35.80;35.00;;;;;;5009836;28;20053;-82
2021/07/24 06:45:14;;;;;;;11.15;3.67;;;36.10;34.40;;;;;;5028396;28;20036;-82
2021/07/24 06:47:39;;;;;;;6.82;3.72;;;36.10;34.10;;;;;;5009433;28;20017;-82
2021/07/24 06:50:06;;;;;;;9.05;4.03;;;36.10;34.60;;;;;;5009547;28;20076;-86
2021/07/24 06:52:31;;;;;;;8.27;3.65;;;36.20;34.90;;;;;;5027011;28;20116;-83
2021/07/24 06:54:57;;;;;;;6.88;3.38;;;36.20;34.70;;;;;;5008852;28;20132;-83
2021/07/24 06:57:23;;;;;;;9.95;3.28;;;36.60;34.30;;;;;;5008818;28;20026;-85
2021/07/24 06:59:49;;;;;;;11.20;4.10;;;36.80;33.70;;;;;;5026972;28;20026;-82
2021/07/24 07:02:15;;;;;;;8.18;3.28;;;37.00;33.60;;;;;;5010893;28;20431;-84
2021/07/24 07:04:41;;;;;;;8.25;3.70;;;37.20;32.50;;;;;;5010477;28;20041;-85
2021/07/24 07:07:07;;;;;;;8.90;4.25;;;36.80;33.00;;;;;;5010455;28;20460;-85
2021/07/24 07:09:33;;;;;;;14.60;3.72;;;36.70;32.70;;;;;;5010760;28;20375;-85
2021/07/24 07:11:59;;;;;;;7.35;3.88;;;36.60;32.80;;;;;;5027724;28;20029;-83
2021/07/24 07:14:25;;;;;;;5.28;3.58;;;36.80;33.30;;;;;;5027787;28;20396;-84
2021/07/24 07:16:51;;;;;;;8.35;4.05;;;37.10;32.50;;;;;;5027528;28;20033;-84
2021/07/24 07:19:19;;;;;;;7.80;3.22;;;37.00;32.50;;;;;;5009846;28;20028;-85
2021/07/24 07:21:45;;;;;;;7.43;4.00;;;37.20;32.80;;;;;;5009662;28;20052;-84
2021/07/24 07:24:11;;;;;;;9.52;3.90;;;37.10;32.50;;;;;;5027239;28;20068;-83
2021/07/24 07:26:36;;;;;;;9.38;3.67;;;36.80;32.70;;;;;;5007824;28;20111;-83
2021/07/24 07:29:03;;;;;;;5.78;3.78;;;36.60;32.70;;;;;;5028058;28;20041;-83
2021/07/24 07:31:33;;;;;;;13.55;4.07;;;35.90;33.40;;;;;;5029355;28;20038;-83
2021/07/24 07:33:58;;;;;;;10.57;4.63;;;35.80;33.80;;;;;;5012420;28;20139;-84
2021/07/24 07:36:24;;;;;;;14.52;3.90;;;36.10;33.60;;;;;;5001127;28;20191;-83
2021/07/24 07:38:50;;;;;;;5.78;4.13;;;36.30;33.90;;;;;;5008875;28;20040;-83
2021/07/24 07:41:17;;;;;;;11.00;4.18;;;36.50;33.20;;;;;;5026587;28;20089;-84
2021/07/24 07:43:43;;;;;;;10.65;3.95;;;36.80;33.00;;;;;;5006664;28;20135;-84
2021/07/24 07:46:09;;;;;;;8.43;3.97;;;37.20;32.50;;;;;;5031122;28;20180;-85
2021/07/24 07:48:36;;;;;;;10.77;3.42;;;37.20;32.60;;;;;;5021944;28;20080;-82
2021/07/24 07:51:05;;;;;;;10.32;4.55;;;37.20;31.60;;;;;;5030553;28;20049;-85
2021/07/24 07:53:31;;;;;;;12.70;4.00;;;37.60;30.90;;;;;;5009152;28;20048;-83
2021/07/24 07:55:57;;;;;;;8.57;3.65;;;37.60;30.90;;;;;;5006624;28;20037;-83
2021/07/24 07:58:23;;;;;;;15.60;4.22;;;37.10;30.50;;;;;;5028551;28;20128;-83
2021/07/24 08:00:50;;;;;;;7.05;3.13;;;36.80;32.10;;;;;;5012212;28;20072;-84
2021/07/24 08:03:16;;;;;;;10.07;4.07;;;36.80;31.90;;;;;;5030588;28;20487;-82
2021/07/24 08:05:42;;;;;;;9.85;3.97;;;36.90;31.70;;;;;;5017533;28;20046;-83
2021/07/24 08:08:07;;;;;;;13.68;4.10;;;36.90;31.90;;;;;;5010642;28;20033;-82
2021/07/24 08:10:36;;;;;;;11.93;4.43;;;37.10;32.00;;;;;;5007898;28;20616;-84
2021/07/24 08:13:16;;;;;;;10.38;3.78;;;37.30;31.60;;;;;;5009671;28;20082;-83
2021/07/24 08:15:43;;;;;;;10.23;4.72;;;37.40;30.90;;;;;;5028541;28;20045;-83
2021/07/24 08:18:09;;;;;;;6.50;4.55;;;37.10;31.90;;;;;;5007702;28;20086;-84
2021/07/24 08:20:34;;;;;;;7.72;4.25;;;36.50;32.10;;;;;;5011715;28;20041;-83
2021/07/24 08:23:01;;;;;;;10.25;4.18;;;36.20;33.40;;;;;;5009843;28;20438;-84
2021/07/24 08:25:27;;;;;;;10.90;3.92;;;36.50;33.00;;;;;;5012490;28;20049;-83
2021/07/24 08:27:55;;;;;;;8.10;3.42;;;36.90;31.80;;;;;;5015926;28;20206;-83
2021/07/24 08:30:21;;;;;;;10.18;3.90;;;37.00;32.20;;;;;;5013317;28;20041;-83
2021/07/24 08:32:46;;;;;;;23.00;4.10;;;37.10;31.80;;;;;;5001131;28;20642;-84
2021/07/24 08:35:12;;;;;;;4.80;3.70;;;37.20;31.60;;;;;;5028905;28;20056;-83
2021/07/24 08:37:38;;;;;;;9.52;3.85;;;37.50;30.60;;;;;;5026649;28;20535;-83
2021/07/24 08:40:04;;;;;;;6.50;3.63;;;37.50;31.40;;;;;;5004065;28;20408;-83
2021/07/24 08:42:37;;;;;;;20.77;4.25;;;37.60;31.50;;;;;;5010421;28;20721;-83
2021/07/24 08:45:03;;;;;;;8.82;3.53;;;37.80;32.10;;;;;;5031733;28;20686;-83
2021/07/24 08:47:30;;;;;;;11.43;4.10;;;37.80;31.50;;;;;;5002652;28;20057;-83
2021/07/24 08:49:57;;;;;;;7.78;4.10;;;37.90;30.90;;;;;;5011470;28;20042;-83
2021/07/24 08:52:26;;;;;;;8.02;4.20;;;37.30;31.50;;;;;;5027414;28;20409;-84
2021/07/24 08:54:52;;;;;;;13.65;4.05;;;37.00;31.80;;;;;;5007372;28;20040;-83
2021/07/24 08:57:22;;;;;;;5.72;4.05;;;36.60;32.90;;;;;;5025303;28;20129;-84
2021/07/24 08:59:49;;;;;;;10.45;4.00;;;36.30;34.00;;;;;;5024754;28;20087;-83
2021/07/24 09:02:24;;;;;;;7.25;4.00;;;36.50;32.60;;;;;;5015849;28;20041;-83
2021/07/24 09:04:53;;;;;;;6.95;3.72;;;36.60;32.40;;;;;;5028234;28;20042;-83
2021/07/24 09:07:20;;;;;;;10.25;4.45;;;37.00;32.20;;;;;;5007047;28;20033;-83
2021/07/24 09:09:48;;;;;;;8.50;4.20;;;36.90;31.00;;;;;;5016936;28;20059;-82
2021/07/24 09:12:13;;;;;;;7.85;4.35;;;36.60;31.90;;;;;;5008769;28;20092;-84
2021/07/24 09:14:39;;;;;;;9.80;4.20;;;36.60;31.90;;;;;;5013044;28;20065;-83
2021/07/24 09:17:09;;;;;;;9.45;4.10;;;36.80;31.10;;;;;;5027700;28;20445;-84
2021/07/24 09:19:36;;;;;;;10.35;4.22;;;36.80;30.70;;;;;;5028231;28;20040;-84
2021/07/24 09:22:01;;;;;;;8.77;4.53;;;37.30;31.10;;;;;;5027855;28;20038;-82
2021/07/24 09:24:27;;;;;;;7.03;3.90;;;37.60;31.10;;;;;;5007826;28;20087;-83
2021/07/24 09:26:53;;;;;;;12.35;3.80;;;37.20;31.10;;;;;;5025389;28;20030;-82
2021/07/24 09:29:20;;;;;;;5.68;3.75;;;37.00;31.90;;;;;;5029069;28;20113;-83
2021/07/24 09:31:47;;;;;;;5.55;3.70;;;37.10;31.80;;;;;;5030269;28;20495;-83
2021/07/24 09:34:15;;;;;;;5.75;4.20;;;36.80;30.20;;;;;;5011525;28;20050;-80
2021/07/24 09:36:42;;;;;;;16.83;4.25;;;36.60;31.80;;;;;;5010630;28;20095;-82
2021/07/24 09:39:08;;;;;;;6.80;3.85;;;36.50;31.90;;;;;;5028377;28;20021;-82
2021/07/24 09:41:34;;;;;;;10.10;4.00;;;36.70;32.00;;;;;;5011072;28;20029;-81
2021/07/24 09:44:00;;;;;;;9.80;4.13;;;36.90;31.40;;;;;;5010841;28;20041;-82
2021/07/24 09:46:27;;;;;;;7.22;3.95;;;37.30;30.80;;;;;;5010517;28;20497;-81
2021/07/24 09:48:54;;;;;;;7.00;4.43;;;37.20;31.50;;;;;;5028718;28;20048;-81
2021/07/24 09:51:36;;;;;;;9.68;3.70;;;37.40;30.30;;;;;;5010976;28;20564;-81
2021/07/24 09:54:04;;;;;;;6.38;3.97;;;37.50;30.90;;;;;;5011290;28;20494;-81
2021/07/24 09:56:40;;;;;;;7.05;3.85;;;37.80;28.90;;;;;;5011013;28;20109;-81
2021/07/24 09:59:32;;;;;;;9.15;3.83;;;37.40;29.70;;;;;;5011185;28;20026;-80
2021/07/24 10:02:03;;;;;;;5.10;3.67;;;37.10;30.90;;;;;;5011012;28;20430;-81
2021/07/24 10:04:35;;;;;;;8.25;3.95;;;36.80;31.10;;;;;;5011093;28;20037;-81
2021/07/24 10:07:04;;;;;;;12.18;4.28;;;36.70;30.70;;;;;;5011265;28;20088;-81
2021/07/24 10:09:35;;;;;;;6.50;3.80;;;36.60;30.30;;;;;;5010951;28;20021;-81
2021/07/24 10:12:09;;;;;;;11.77;3.85;;;36.50;30.20;;;;;;5011320;28;20100;-80
2021/07/24 10:14:35;;;;;;;8.38;3.80;;;36.40;30.80;;;;;;5010214;28;20032;-81
2021/07/24 10:17:01;;;;;;;7.97;4.28;;;36.00;31.30;;;;;;5009270;28;20103;-80
2021/07/24 10:19:28;;;;;;;9.82;3.90;;;35.80;30.90;;;;;;5008513;28;20025;-79
2021/07/24 10:21:56;;;;;;;7.47;3.72;;;35.00;32.30;;;;;;5008110;28;20502;-80
2021/07/24 10:24:22;;;;;;;7.93;4.00;;;34.80;32.20;;;;;;5026045;28;20041;-80
2021/07/24 10:26:58;;;;;;;8.43;4.40;;;34.60;32.60;;;;;;5008862;28;20426;-80
2021/07/24 10:29:36;;;;;;;9.40;4.28;;;34.50;32.70;;;;;;5026730;28;20030;-81
2021/07/24 10:32:07;;;;;;;10.70;3.97;;;34.10;32.70;;;;;;5009250;28;20494;-80
2021/07/24 10:34:36;;;;;;;6.55;4.05;;;33.90;33.00;;;;;;5026675;28;20057;-80
2021/07/24 10:37:21;;;;;;;5.22;3.75;;;33.60;32.80;;;;;;5026798;28;20037;-80
2021/07/24 10:39:47;;;;;;;12.48;3.53;;;33.10;33.10;;;;;;5026216;28;20030;-81
2021/07/24 10:42:14;;;;;;;8.75;3.85;;;32.90;35.00;;;;;;5026085;28;20508;-81
2021/07/24 10:44:40;;;;;;;4.88;3.60;;;33.00;34.60;;;;;;5007989;28;20383;-80
2021/07/24 10:47:16;;;;;;;6.85;3.55;;;32.80;34.60;;;;;;5026012;28;20029;-81
2021/07/24 10:49:44;;;;;;;6.32;3.97;;;32.60;34.60;;;;;;5008502;28;20048;-80
2021/07/24 10:52:11;;;;;;;13.13;4.35;;;32.40;34.70;;;;;;5008107;28;20052;-79
2021/07/24 10:54:51;;;;;;;8.43;4.40;;;32.40;35.00;;;;;;5026782;28;20025;-80
2021/07/24 10:57:54;;;;;;;10.45;4.25;;;32.60;34.80;;;;;;5008640;28;20083;-80
2021/07/24 11:00:20;;;;;;;10.00;3.90;;;32.40;35.30;;;;;;5026564;28;20096;-81
2021/07/24 11:02:47;;;;;;;10.48;3.83;;;32.60;35.00;;;;;;5008562;28;20472;-80
2021/07/24 11:05:27;;;;;;;9.73;4.57;;;32.60;33.20;;;;;;5007869;28;20033;-80
2021/07/24 11:07:54;;;;;;;5.15;4.20;;;32.40;34.10;;;;;;5008791;28;20478;-81
2021/07/24 11:10:20;;;;;;;9.43;4.22;;;32.30;34.10;;;;;;5026125;28;20030;-80
2021/07/24 11:12:46;;;;;;;12.90;4.18;;;32.60;35.00;;;;;;5008310;28;20359;-80
2021/07/24 11:15:20;;;;;;;6.35;3.92;;;32.60;33.10;;;;;;5008202;28;20116;-80
2021/07/24 11:18:23;;;;;;;5.90;4.03;;;32.70;33.30;;;;;;5008361;28;20497;-80
2021/07/24 11:20:49;;;;;;;5.00;3.92;;;32.70;34.00;;;;;;5008644;28;20025;-79
2021/07/24 11:23:15;;;;;;;8.70;4.28;;;32.50;33.40;;;;;;5008129;28;20049;-80
2021/07/24 11:25:42;;;;;;;9.13;4.00;;;32.60;34.40;;;;;;5026170;28;20064;-80
2021/07/24 11:28:09;;;;;;;5.22;3.63;;;32.80;33.50;;;;;;5008268;28;20486;-79
2021/07/24 11:30:34;;;;;;;7.18;4.00;;;32.90;32.60;;;;;;5008320;28;20513;-79
2021/07/24 11:33:01;;;;;;;10.52;4.05;;;32.80;32.80;;;;;;5025918;28;20030;-79
2021/07/24 11:35:30;;;;;;;6.20;4.22;;;32.70;32.40;;;;;;5026101;28;20585;-79
2021/07/24 11:37:56;;;;;;;10.10;3.97;;;32.30;32.00;;;;;;5008555;28;20063;-80
2021/07/24 11:40:27;;;;;;;7.78;4.35;;;32.10;33.00;;;;;;5026004;28;20045;-80
2021/07/24 11:42:57;;;;;;;7.85;4.32;;;32.10;33.20;;;;;;5025592;28;20735;-80
2021/07/24 11:45:23;;;;;;;11.38;4.88;;;32.30;34.40;;;;;;5008202;28;20033;-79
2021/07/24 11:47:48;;;;;;;6.38;4.05;;;32.40;33.50;;;;;;5025906;28;20110;-81
2021/07/24 11:50:18;;;;;;;7.55;4.30;;;32.30;33.60;;;;;;5008558;28;20043;-79
2021/07/24 11:52:53;;;;;;;8.65;4.65;;;32.10;32.20;;;;;;5025374;28;20045;-79
2021/07/24 11:55:26;;;;;;;8.40;4.57;;;32.00;33.50;;;;;;5025859;28;20037;-79
2021/07/24 11:58:12;;;;;;;12.38;4.63;;;32.00;33.70;;;;;;5025930;28;20026;-80
2021/07/24 12:00:49;;;;;;;7.28;4.22;;;32.10;34.40;;;;;;5025951;28;20072;-78
2021/07/24 12:03:21;;;;;;;8.00;4.20;;;32.10;34.20;;;;;;5025992;28;20087;-79
2021/07/24 12:05:57;;;;;;;7.15;4.50;;;32.00;34.40;;;;;;5007914;28;20045;-80
2021/07/24 12:08:28;;;;;;;11.48;4.68;;;32.10;34.70;;;;;;5007775;28;20025;-81
2021/07/24 12:10:54;;;;;;;15.43;5.13;;;32.00;33.30;;;;;;5008413;28;20052;-79
2021/07/24 12:13:25;;;;;;;11.70;4.10;;;32.00;33.30;;;;;;5008062;28;20483;-79
2021/07/24 12:16:10;;;;;;;8.35;4.53;;;31.90;34.60;;;;;;5009593;28;20258;-79
2021/07/24 12:18:47;;;;;;;8.60;5.40;;;32.10;34.00;;;;;;5029505;28;20414;-79
2021/07/24 12:21:21;;;;;;;8.23;4.65;;;32.30;33.90;;;;;;5029762;28;20302;-80
2021/07/24 12:23:58;;;;;;;5.55;4.03;;;32.50;33.60;;;;;;5011474;28;20521;-80
2021/07/24 12:26:42;;;;;;;6.93;4.03;;;32.60;33.70;;;;;;5011804;28;20120;-79
2021/07/24 12:29:10;;;;;;;7.63;4.22;;;32.80;33.50;;;;;;5028856;28;20021;-80
2021/07/24 12:31:47;;;;;;;14.90;4.38;;;32.80;32.10;;;;;;5011627;28;20033;-79
2021/07/24 12:34:17;;;;;;;10.95;4.40;;;32.60;32.50;;;;;;5011194;28;20088;-80
2021/07/24 12:36:53;;;;;;;6.18;3.97;;;32.40;32.60;;;;;;5011302;28;20022;-80
2021/07/24 12:39:19;;;;;;;;;;;32.30;33.00;;;;;;5012100;28;20033;-78
2021/07/24 12:41:56;;;;;;;6.72;4.10;;;32.40;32.30;;;;;;5028407;28;19916;-80
2021/07/24 12:44:21;;;;;;;9.60;4.57;;;32.50;32.40;;;;;;5010670;28;20033;-79
2021/07/24 12:47:14;;;;;;;10.32;3.92;;;32.80;32.70;;;;;;5010681;28;20120;-80
2021/07/24 12:49:44;;;;;;;7.95;4.35;;;33.00;31.20;;;;;;5011154;28;20560;-80
2021/07/24 12:52:28;;;;;;;8.30;4.00;;;33.00;30.80;;;;;;5028570;28;20041;-80